Time,TemperatureF,DewpointF,PressureIn,WindDirection,WindDirectionDegrees,WindSpeedMPH,WindSpeedGustMPH,Humidity,HourlyPrecipIn,Conditions,Clouds,dailyrainin,SoftwareType,DateUTC
2013-03-03 00:00:00,21.0,19.3,30.04,NW,315,4.0,14.0,93,0.00,,,0.00,Weather View 32 v70,2013-03-03 05:00:00,
2013-03-03 00:15:00,21.0,19.3,30.04,WNW,292,8.0,14.0,93,0.00,,,0.00,Weather View 32 v70,2013-03-03 05:15:00,
2013-03-03 00:30:00,21.0,19.3,30.04,WSW,247,3.0,12.0,93,0.00,,,0.00,Weather View 32 v70,2013-03-03 05:30:00,
2013-03-03 00:45:00,21.0,19.3,30.04,WSW,247,4.0,14.0,93,0.00,,,0.00,Weather View 32 v70,2013-03-03 05:45:00,
2013-03-03 00:50:00,21.0,19.3,30.04,WSW,247,4.0,14.0,93,0.00,,,0.00,Weather View 32 v70,2013-03-03 05:50:00,
2013-03-03 01:00:00,21.0,19.3,30.04,West,270,5.0,14.0,93,0.00,,,0.00,Weather View 32 v70,2013-03-03 06:00:00,
2013-03-03 01:15:00,21.0,19.3,30.04,NW,315,6.0,14.0,93,0.00,,,0.00,Weather View 32 v70,2013-03-03 06:15:00,
2013-03-03 01:30:00,21.0,19.3,30.04,West,270,7.0,14.0,93,0.00,,,0.00,Weather View 32 v70,2013-03-03 06:30:00,
2013-03-03 01:45:00,21.0,19.3,30.04,NNW,337,7.0,13.0,93,0.00,,,0.00,Weather View 32 v70,2013-03-03 06:45:00,
2013-03-03 01:51:00,21.0,19.3,30.04,NNW,337,7.0,13.0,93,0.00,,,0.00,Weather View 32 v70,2013-03-03 06:51:00,
2013-03-03 02:00:00,20.0,18.3,30.04,NW,315,6.0,13.0,93,0.00,,,0.00,Weather View 32 v70,2013-03-03 07:00:00,
2013-03-03 02:15:00,21.0,19.3,30.04,SW,225,4.0,13.0,93,0.00,,,0.00,Weather View 32 v70,2013-03-03 07:15:00,
2013-03-03 02:30:00,20.0,18.3,30.04,WSW,247,5.0,13.0,93,0.00,,,0.00,Weather View 32 v70,2013-03-03 07:30:00,
2013-03-03 02:45:00,20.0,18.3,30.04,NE,45,10.0,12.0,93,0.00,,,0.00,Weather View 32 v70,2013-03-03 07:45:00,
2013-03-03 02:51:00,20.0,18.3,30.04,NE,45,10.0,12.0,93,0.00,,,0.00,Weather View 32 v70,2013-03-03 07:51:00,
2013-03-03 03:00:00,20.0,18.3,30.04,WSW,247,9.0,13.0,93,0.00,,,0.00,Weather View 32 v70,2013-03-03 08:00:00,
2013-03-03 03:15:00,20.0,18.3,30.03,West,270,5.0,13.0,93,0.00,,,0.00,Weather View 32 v70,2013-03-03 08:15:00,
2013-03-03 03:30:00,20.0,18.3,30.04,WNW,292,8.0,13.0,93,0.00,,,0.00,Weather View 32 v70,2013-03-03 08:30:00,
2013-03-03 03:45:00,20.0,18.3,30.04,South,180,1.0,13.0,93,0.00,,,0.00,Weather View 32 v70,2013-03-03 08:45:00,
2013-03-03 03:52:00,20.0,18.3,30.04,South,180,1.0,13.0,93,0.00,,,0.00,Weather View 32 v70,2013-03-03 08:52:00,
2013-03-03 04:00:00,20.0,18.3,30.04,West,270,6.0,13.0,93,0.00,,,0.00,Weather View 32 v70,2013-03-03 09:00:00,
2013-03-03 04:15:00,20.0,18.3,30.04,North,360,1.0,13.0,93,0.00,,,0.00,Weather View 32 v70,2013-03-03 09:15:00,
2013-03-03 04:30:00,20.0,18.3,30.04,WNW,292,6.0,13.0,93,0.00,,,0.00,Weather View 32 v70,2013-03-03 09:30:00,
2013-03-03 04:45:00,20.0,18.3,30.03,North,360,4.0,13.0,93,0.00,,,0.00,Weather View 32 v70,2013-03-03 09:45:00,
2013-03-03 04:52:00,20.0,18.3,30.03,North,360,4.0,13.0,93,0.00,,,0.00,Weather View 32 v70,2013-03-03 09:52:00,
2013-03-03 05:00:00,20.0,18.3,30.03,NW,315,3.0,13.0,93,0.00,,,0.00,Weather View 32 v70,2013-03-03 10:00:00,
2013-03-03 05:15:00,20.0,18.3,30.03,NNW,337,6.0,11.0,93,0.00,,,0.00,Weather View 32 v70,2013-03-03 10:15:00,
2013-03-03 05:30:00,20.0,18.3,30.03,West,270,8.0,11.0,93,0.00,,,0.00,Weather View 32 v70,2013-03-03 10:30:00,
2013-03-03 05:45:00,20.0,18.3,30.03,WNW,292,6.0,10.0,93,0.00,,,0.00,Weather View 32 v70,2013-03-03 10:45:00,
2013-03-03 05:53:00,20.0,18.3,30.03,WNW,292,6.0,10.0,93,0.00,,,0.00,Weather View 32 v70,2013-03-03 10:53:00,
2013-03-03 06:00:00,20.0,18.3,30.03,North,360,5.0,11.0,93,0.00,,,0.00,Weather View 32 v70,2013-03-03 11:00:00,
2013-03-03 06:15:00,20.0,18.3,30.03,WNW,292,7.0,11.0,93,0.00,,,0.00,Weather View 32 v70,2013-03-03 11:15:00,
2013-03-03 06:30:00,20.0,18.3,30.03,NNW,337,4.0,11.0,93,0.00,,,0.00,Weather View 32 v70,2013-03-03 11:30:00,
2013-03-03 06:45:00,20.0,18.3,30.03,NW,315,6.0,11.0,93,0.00,,,0.00,Weather View 32 v70,2013-03-03 11:45:00,
2013-03-03 06:53:00,20.0,18.3,30.03,NW,315,6.0,11.0,93,0.00,,,0.00,Weather View 32 v70,2013-03-03 11:53:00,
2013-03-03 07:00:00,20.0,18.3,30.04,NW,315,6.0,11.0,93,0.00,,,0.00,Weather View 32 v70,2013-03-03 12:00:00,
2013-03-03 07:15:00,20.0,18.3,30.04,WNW,292,6.0,11.0,93,0.00,,,0.00,Weather View 32 v70,2013-03-03 12:15:00,
2013-03-03 07:30:00,20.0,18.3,30.04,WNW,292,3.0,11.0,93,0.00,,,0.00,Weather View 32 v70,2013-03-03 12:30:00,
2013-03-03 07:45:00,20.0,18.3,30.05,WNW,292,5.0,11.0,93,0.00,,,0.00,Weather View 32 v70,2013-03-03 12:45:00,
2013-03-03 07:54:00,20.0,18.3,30.05,WNW,292,5.0,11.0,93,0.00,,,0.00,Weather View 32 v70,2013-03-03 12:54:00,
2013-03-03 08:00:00,20.0,18.3,30.05,WNW,292,6.0,11.0,93,0.00,,,0.00,Weather View 32 v70,2013-03-03 13:00:00,
2013-03-03 08:15:00,20.0,18.3,30.05,West,270,0.0,11.0,93,0.00,,,0.00,Weather View 32 v70,2013-03-03 13:15:00,
2013-03-03 08:30:00,20.0,18.3,30.06,WNW,292,7.0,11.0,93,0.00,,,0.00,Weather View 32 v70,2013-03-03 13:30:00,
2013-03-03 08:45:00,20.0,18.3,30.06,SW,225,1.0,16.0,93,0.00,,,0.00,Weather View 32 v70,2013-03-03 13:45:00,
2013-03-03 09:00:00,20.0,17.8,30.06,SW,225,6.0,16.0,91,0.00,,,0.00,Weather View 32 v70,2013-03-03 14:00:00,
2013-03-03 09:15:00,20.0,17.5,30.06,WNW,292,6.0,16.0,90,0.00,,,0.00,Weather View 32 v70,2013-03-03 14:15:00,
2013-03-03 09:30:00,21.0,18.5,30.06,North,360,4.0,16.0,90,0.00,,,0.00,Weather View 32 v70,2013-03-03 14:30:00,
2013-03-03 09:45:00,21.0,18.5,30.04,West,270,5.0,13.0,90,0.00,,,0.00,Weather View 32 v70,2013-03-03 14:45:00,
2013-03-03 10:00:00,21.0,18.3,30.04,NE,45,6.0,12.0,89,0.00,,,0.00,Weather View 32 v70,2013-03-03 15:00:00,
2013-03-03 10:15:00,21.0,18.8,30.05,North,360,5.0,10.0,91,0.00,,,0.00,Weather View 32 v70,2013-03-03 15:15:00,
2013-03-03 10:30:00,21.0,18.5,30.05,NW,315,10.0,10.0,90,0.00,,,0.00,Weather View 32 v70,2013-03-03 15:30:00,
2013-03-03 10:45:00,22.0,19.8,30.04,WSW,247,1.0,10.0,91,0.00,,,0.00,Weather View 32 v70,2013-03-03 15:45:00,
2013-03-03 11:00:00,22.0,17.4,30.04,WNW,292,6.0,12.0,82,0.00,,,0.00,Weather View 32 v70,2013-03-03 16:00:00,
2013-03-03 11:15:00,22.0,18.7,30.04,WNW,292,6.0,12.0,87,0.00,,,0.00,Weather View 32 v70,2013-03-03 16:15:00,
2013-03-03 11:30:00,22.0,18.2,30.04,NW,315,2.0,12.0,85,0.00,,,0.00,Weather View 32 v70,2013-03-03 16:30:00,
2013-03-03 11:45:00,22.0,18.2,30.05,West,270,5.0,13.0,85,0.00,,,0.00,Weather View 32 v70,2013-03-03 16:45:00,
2013-03-03 12:00:00,22.0,17.9,30.05,WNW,292,6.0,13.0,84,0.00,,,0.00,Weather View 32 v70,2013-03-03 17:00:00,
2013-03-03 12:15:00,22.0,18.2,30.04,NW,315,5.0,14.0,85,0.00,,,0.00,Weather View 32 v70,2013-03-03 17:15:00,
2013-03-03 12:30:00,22.0,18.7,30.04,WNW,292,7.0,14.0,87,0.00,,,0.00,Weather View 32 v70,2013-03-03 17:30:00,
2013-03-03 12:45:00,23.0,18.9,30.03,West,270,6.0,14.0,84,0.00,,,0.00,Weather View 32 v70,2013-03-03 17:45:00,
2013-03-03 13:00:00,23.0,18.9,30.03,SW,225,6.0,14.0,84,0.00,,,0.00,Weather View 32 v70,2013-03-03 18:00:00,
2013-03-03 13:15:00,23.0,18.9,30.02,NW,315,6.0,13.0,84,0.00,,,0.00,Weather View 32 v70,2013-03-03 18:15:00,
2013-03-03 13:30:00,23.0,19.4,30.02,North,360,4.0,12.0,86,0.00,,,0.00,Weather View 32 v70,2013-03-03 18:30:00,
2013-03-03 13:45:00,23.0,19.2,30.02,NW,315,6.0,12.0,85,0.00,,,0.00,Weather View 32 v70,2013-03-03 18:45:00,
2013-03-03 14:00:00,23.0,19.7,30.02,NW,315,6.0,12.0,87,0.00,,,0.00,Weather View 32 v70,2013-03-03 19:00:00,
2013-03-03 14:15:00,23.0,19.7,30.02,NW,315,6.0,12.0,87,0.00,,,0.00,Weather View 32 v70,2013-03-03 19:15:00,
2013-03-03 14:30:00,23.0,19.7,30.02,NW,315,3.0,12.0,87,0.00,,,0.00,Weather View 32 v70,2013-03-03 19:30:00,
2013-03-03 14:45:00,24.0,20.4,30.02,WNW,292,3.0,12.0,86,0.00,,,0.00,Weather View 32 v70,2013-03-03 19:45:00,
2013-03-03 15:00:00,24.0,19.3,30.01,WNW,292,3.0,12.0,82,0.00,,,0.00,Weather View 32 v70,2013-03-03 20:00:00,
2013-03-03 15:15:00,24.0,20.4,30.02,WNW,292,3.0,12.0,86,0.00,,,0.00,Weather View 32 v70,2013-03-03 20:15:00,
2013-03-03 15:30:00,24.0,20.4,30.02,West,270,1.0,12.0,86,0.00,,,0.00,Weather View 32 v70,2013-03-03 20:30:00,
2013-03-03 15:45:00,25.0,19.7,30.01,West,270,6.0,12.0,80,0.00,,,0.00,Weather View 32 v70,2013-03-03 20:45:00,
2013-03-03 16:00:00,24.0,17.8,30.01,WNW,292,6.0,15.0,77,0.00,,,0.00,Weather View 32 v70,2013-03-03 21:00:00,
2013-03-03 16:15:00,23.0,19.7,30.03,NW,315,6.0,21.0,87,0.00,,,0.00,Weather View 32 v70,2013-03-03 21:15:00,
2013-03-03 16:30:00,23.0,20.0,30.03,NNW,337,6.0,21.0,88,0.00,,,0.00,Weather View 32 v70,2013-03-03 21:30:00,
2013-03-03 16:45:00,22.0,19.8,30.04,NNE,22,3.0,21.0,91,0.00,,,0.00,Weather View 32 v70,2013-03-03 21:45:00,
2013-03-03 17:00:00,22.0,20.0,30.04,NW,315,6.0,21.0,92,0.00,,,0.00,Weather View 32 v70,2013-03-03 22:00:00,
2013-03-03 17:15:00,22.0,20.3,30.04,WNW,292,6.0,17.0,93,0.00,,,0.00,Weather View 32 v70,2013-03-03 22:15:00,
2013-03-03 17:30:00,22.0,20.3,30.05,NW,315,7.0,16.0,93,0.00,,,0.00,Weather View 32 v70,2013-03-03 22:30:00,
2013-03-03 17:45:00,22.0,19.8,30.05,NW,315,6.0,16.0,91,0.00,,,0.00,Weather View 32 v70,2013-03-03 22:45:00,
2013-03-03 18:00:00,22.0,19.5,30.05,SSW,202,4.0,16.0,90,0.00,,,0.00,Weather View 32 v70,2013-03-03 23:00:00,
2013-03-03 18:15:00,22.0,18.7,30.06,West,270,6.0,12.0,87,0.00,,,0.00,Weather View 32 v70,2013-03-03 23:15:00,
2013-03-03 18:30:00,22.0,17.9,30.06,WSW,247,8.0,13.0,84,0.00,,,0.00,Weather View 32 v70,2013-03-03 23:30:00,
2013-03-03 18:45:00,22.0,17.9,30.06,NW,315,2.0,13.0,84,0.00,,,0.00,Weather View 32 v70,2013-03-03 23:45:00,
2013-03-03 19:00:00,22.0,17.4,30.06,NW,315,6.0,13.0,82,0.00,,,0.00,Weather View 32 v70,2013-03-04 00:00:00,
2013-03-03 19:15:00,22.0,16.8,30.06,NW,315,5.0,13.0,80,0.00,,,0.00,Weather View 32 v70,2013-03-04 00:15:00,
2013-03-03 19:30:00,22.0,16.5,30.07,NW,315,3.0,13.0,79,0.00,,,0.00,Weather View 32 v70,2013-03-04 00:30:00,
2013-03-03 19:45:00,22.0,16.2,30.07,WNW,292,4.0,8.0,78,0.00,,,0.00,Weather View 32 v70,2013-03-04 00:45:00,
2013-03-03 20:00:00,22.0,16.2,30.07,NW,315,2.0,8.0,78,0.00,,,0.00,Weather View 32 v70,2013-03-04 01:00:00,
2013-03-03 20:15:00,22.0,16.2,30.07,NW,315,6.0,8.0,78,0.00,,,0.00,Weather View 32 v70,2013-03-04 01:15:00,
2013-03-03 20:30:00,22.0,16.5,30.08,WNW,292,2.0,9.0,79,0.00,,,0.00,Weather View 32 v70,2013-03-04 01:30:00,
2013-03-03 20:45:00,22.0,16.5,30.08,NNW,337,6.0,9.0,79,0.00,,,0.00,Weather View 32 v70,2013-03-04 01:45:00,
2013-03-03 21:00:00,22.0,17.1,30.08,WNW,292,6.0,9.0,81,0.00,,,0.00,Weather View 32 v70,2013-03-04 02:00:00,
2013-03-03 21:15:00,22.0,16.8,30.08,West,270,2.0,9.0,80,0.00,,,0.00,Weather View 32 v70,2013-03-04 02:15:00,
2013-03-03 21:30:00,22.0,17.4,30.08,West,270,3.0,8.0,82,0.00,,,0.00,Weather View 32 v70,2013-03-04 02:30:00,
2013-03-03 21:45:00,22.0,17.1,30.09,WNW,292,1.0,9.0,81,0.00,,,0.00,Weather View 32 v70,2013-03-04 02:45:00,
2013-03-03 22:00:00,22.0,17.6,30.08,SW,225,2.0,9.0,83,0.00,,,0.00,Weather View 32 v70,2013-03-04 03:00:00,
2013-03-03 22:15:00,21.0,16.9,30.08,SSW,202,6.0,9.0,84,0.00,,,0.00,Weather View 32 v70,2013-03-04 03:15:00,
2013-03-03 22:30:00,21.0,17.5,30.08,SW,225,7.0,9.0,86,0.00,,,0.00,Weather View 32 v70,2013-03-04 03:30:00,
2013-03-03 22:45:00,21.0,17.7,30.08,SSE,157,1.0,9.0,87,0.00,,,0.00,Weather View 32 v70,2013-03-04 03:45:00,
2013-03-03 23:00:00,22.0,18.5,30.08,WNW,292,4.0,9.0,86,0.00,,,0.00,Weather View 32 v70,2013-03-04 04:00:00,
2013-03-03 23:15:00,21.0,18.5,30.08,NNW,337,5.0,10.0,90,0.00,,,0.00,Weather View 32 v70,2013-03-04 04:15:00,
2013-03-03 23:30:00,21.0,19.0,30.09,NW,315,6.0,10.0,92,0.00,,,0.00,Weather View 32 v70,2013-03-04 04:30:00,
2013-03-03 23:45:00,21.0,18.8,30.09,West,270,3.0,10.0,91,0.00,,,0.00,Weather View 32 v70,2013-03-04 04:45:00,